sensor_id;sensor_type;location;lat;lon;timestamp;P1;P2;P0
31163;PMS5003;17796;49.296;-117.656;2022-09-23T00:02:36;9;9;
31163;PMS5003;17796;49.296;-117.656;2022-09-23T00:17:39;15;13;
31163;PMS5003;17796;49.296;-117.656;2022-09-23T00:32:43;15;11;
31163;PMS5003;17796;49.296;-117.656;2022-09-23T00:47:49;10;9;
31163;PMS5003;17796;49.296;-117.656;2022-09-23T01:02:54;9;8;
31163;PMS5003;17796;49.296;-117.656;2022-09-23T01:18:05;13;12;
31163;PMS5003;17796;49.296;-117.656;2022-09-23T01:33:17;14;10;
31163;PMS5003;17796;49.296;-117.656;2022-09-23T01:48:26;14;14;
31163;PMS5003;17796;49.296;-117.656;2022-09-23T02:03:36;15;14;
31163;PMS5003;17796;49.296;-117.656;2022-09-23T02:18:47;10;10;
31163;PMS5003;17796;49.296;-117.656;2022-09-23T02:33:56;13;13;
31163;PMS5003;17796;49.296;-117.656;2022-09-23T02:49:09;9;9;
31163;PMS5003;17796;49.296;-117.656;2022-09-23T03:04:20;11;10;
31163;PMS5003;17796;49.296;-117.656;2022-09-23T03:19:31;11;8;
31163;PMS5003;17796;49.296;-117.656;2022-09-23T03:34:38;10;8;
31163;PMS5003;17796;49.296;-117.656;2022-09-23T03:49:46;12;9;
31163;PMS5003;17796;49.296;-117.656;2022-09-23T04:04:49;8;8;
31163;PMS5003;17796;49.296;-117.656;2022-09-23T04:19:53;8;8;
31163;PMS5003;17796;49.296;-117.656;2022-09-23T04:34:57;10;9;
31163;PMS5003;17796;49.296;-117.656;2022-09-23T04:50:00;10;10;
31163;PMS5003;17796;49.296;-117.656;2022-09-23T05:05:04;23;22;
31163;PMS5003;17796;49.296;-117.656;2022-09-23T05:20:09;13;13;
31163;PMS5003;17796;49.296;-117.656;2022-09-23T05:35:12;13;13;
31163;PMS5003;17796;49.296;-117.656;2022-09-23T05:50:16;15;13;
31163;PMS5003;17796;49.296;-117.656;2022-09-23T06:05:20;10;9;
31163;PMS5003;17796;49.296;-117.656;2022-09-23T06:20:24;11;10;
31163;PMS5003;17796;49.296;-117.656;2022-09-23T06:35:27;15;13;
31163;PMS5003;17796;49.296;-117.656;2022-09-23T06:50:31;14;14;
31163;PMS5003;17796;49.296;-117.656;2022-09-23T07:05:35;10;10;
31163;PMS5003;17796;49.296;-117.656;2022-09-23T07:20:38;10;10;
31163;PMS5003;17796;49.296;-117.656;2022-09-23T07:35:42;13;10;
31163;PMS5003;17796;49.296;-117.656;2022-09-23T07:50:46;14;12;
31163;PMS5003;17796;49.296;-117.656;2022-09-23T08:05:50;10;10;
31163;PMS5003;17796;49.296;-117.656;2022-09-23T08:20:54;12;9;
31163;PMS5003;17796;49.296;-117.656;2022-09-23T08:36:00;13;11;
31163;PMS5003;17796;49.296;-117.656;2022-09-23T08:51:06;14;11;
31163;PMS5003;17796;49.296;-117.656;2022-09-23T09:06:16;14;13;
31163;PMS5003;17796;49.296;-117.656;2022-09-23T09:21:26;9;9;
31163;PMS5003;17796;49.296;-117.656;2022-09-23T09:36:37;10;10;
31163;PMS5003;17796;49.296;-117.656;2022-09-23T09:51:42;11;10;
31163;PMS5003;17796;49.296;-117.656;2022-09-23T10:07:04;11;11;
31163;PMS5003;17796;49.296;-117.656;2022-09-23T10:22:20;14;12;
31163;PMS5003;17796;49.296;-117.656;2022-09-23T10:37:34;10;10;
31163;PMS5003;17796;49.296;-117.656;2022-09-23T10:52:47;13;11;
31163;PMS5003;17796;49.296;-117.656;2022-09-23T11:08:04;10;8;
31163;PMS5003;17796;49.296;-117.656;2022-09-23T11:23:25;12;12;
31163;PMS5003;17796;49.296;-117.656;2022-09-23T11:38:38;9;9;
31163;PMS5003;17796;49.296;-117.656;2022-09-23T11:53:46;11;9;
31163;PMS5003;17796;49.296;-117.656;2022-09-23T12:08:56;13;12;
31163;PMS5003;17796;49.296;-117.656;2022-09-23T12:24:18;9;9;
31163;PMS5003;17796;49.296;-117.656;2022-09-23T12:39:30;12;12;
31163;PMS5003;17796;49.296;-117.656;2022-09-23T12:54:35;13;12;
31163;PMS5003;17796;49.296;-117.656;2022-09-23T13:09:41;14;11;
31163;PMS5003;17796;49.296;-117.656;2022-09-23T13:24:52;11;11;
31163;PMS5003;17796;49.296;-117.656;2022-09-23T13:40:09;12;12;
31163;PMS5003;17796;49.296;-117.656;2022-09-23T13:55:31;11;11;
31163;PMS5003;17796;49.296;-117.656;2022-09-23T14:10:35;11;11;
31163;PMS5003;17796;49.296;-117.656;2022-09-23T14:25:39;15;14;
31163;PMS5003;17796;49.296;-117.656;2022-09-23T14:40:51;11;11;
31163;PMS5003;17796;49.296;-117.656;2022-09-23T14:56:08;13;12;
31163;PMS5003;17796;49.296;-117.656;2022-09-23T15:11:13;12;12;
31163;PMS5003;17796;49.296;-117.656;2022-09-23T15:26:19;17;16;
31163;PMS5003;17796;49.296;-117.656;2022-09-23T15:41:23;19;19;
31163;PMS5003;17796;49.296;-117.656;2022-09-23T15:56:27;10;10;
31163;PMS5003;17796;49.296;-117.656;2022-09-23T16:11:31;15;12;
31163;PMS5003;17796;49.296;-117.656;2022-09-23T16:26:36;12;12;
31163;PMS5003;17796;49.296;-117.656;2022-09-23T16:41:40;14;13;
31163;PMS5003;17796;49.296;-117.656;2022-09-23T16:56:43;11;11;
31163;PMS5003;17796;49.296;-117.656;2022-09-23T17:11:54;15;13;
31163;PMS5003;17796;49.296;-117.656;2022-09-23T17:27:00;16;13;
31163;PMS5003;17796;49.296;-117.656;2022-09-23T17:42:04;19;15;
31163;PMS5003;17796;49.296;-117.656;2022-09-23T17:57:08;16;14;
31163;PMS5003;17796;49.296;-117.656;2022-09-23T18:12:11;13;13;
31163;PMS5003;17796;49.296;-117.656;2022-09-23T18:27:15;13;13;
31163;PMS5003;17796;49.296;-117.656;2022-09-23T18:42:19;12;11;
31163;PMS5003;17796;49.296;-117.656;2022-09-23T18:57:22;15;14;
31163;PMS5003;17796;49.296;-117.656;2022-09-23T19:12:26;14;13;
31163;PMS5003;17796;49.296;-117.656;2022-09-23T19:27:29;20;15;
31163;PMS5003;17796;49.296;-117.656;2022-09-23T19:42:33;14;14;
31163;PMS5003;17796;49.296;-117.656;2022-09-23T19:57:37;15;14;
31163;PMS5003;17796;49.296;-117.656;2022-09-23T20:12:40;18;16;
31163;PMS5003;17796;49.296;-117.656;2022-09-23T20:27:48;14;14;
31163;PMS5003;17796;49.296;-117.656;2022-09-23T20:42:52;16;16;
31163;PMS5003;17796;49.296;-117.656;2022-09-23T20:57:56;15;14;
31163;PMS5003;17796;49.296;-117.656;2022-09-23T21:12:59;17;17;
31163;PMS5003;17796;49.296;-117.656;2022-09-23T21:28:04;18;16;
31163;PMS5003;17796;49.296;-117.656;2022-09-23T21:43:07;15;14;
31163;PMS5003;17796;49.296;-117.656;2022-09-23T21:58:11;14;13;
31163;PMS5003;17796;49.296;-117.656;2022-09-23T22:13:15;13;12;
31163;PMS5003;17796;49.296;-117.656;2022-09-23T22:28:19;17;17;
31163;PMS5003;17796;49.296;-117.656;2022-09-23T22:43:23;45;43;
31163;PMS5003;17796;49.296;-117.656;2022-09-23T22:58:26;30;28;
31163;PMS5003;17796;49.296;-117.656;2022-09-23T23:13:31;28;26;
31163;PMS5003;17796;49.296;-117.656;2022-09-23T23:28:35;27;23;
31163;PMS5003;17796;49.296;-117.656;2022-09-23T23:43:39;25;20;
31163;PMS5003;17796;49.296;-117.656;2022-09-23T23:58:44;19;17;
